sensor_id;sensor_type;location;lat;lon;timestamp;P1;durP1;ratioP1;P2;durP2;ratioP2
68072;SDS011;54862;51.502;7.446;2022-08-21T00:01:18;12.95;;;5.55;;
68072;SDS011;54862;51.502;7.446;2022-08-21T00:03:44;10.90;;;5.45;;
68072;SDS011;54862;51.502;7.446;2022-08-21T00:06:11;15.55;;;5.20;;
68072;SDS011;54862;51.502;7.446;2022-08-21T00:08:37;12.77;;;5.65;;
68072;SDS011;54862;51.502;7.446;2022-08-21T00:11:03;11.23;;;5.40;;
68072;SDS011;54862;51.502;7.446;2022-08-21T00:13:29;13.85;;;4.85;;
68072;SDS011;54862;51.502;7.446;2022-08-21T00:15:56;16.42;;;5.47;;
68072;SDS011;54862;51.502;7.446;2022-08-21T00:18:22;11.45;;;5.70;;
68072;SDS011;54862;51.502;7.446;2022-08-21T00:20:48;10.65;;;5.60;;
68072;SDS011;54862;51.502;7.446;2022-08-21T00:23:14;12.63;;;5.65;;
68072;SDS011;54862;51.502;7.446;2022-08-21T00:25:41;14.57;;;5.72;;
68072;SDS011;54862;51.502;7.446;2022-08-21T00:28:07;13.82;;;5.72;;
68072;SDS011;54862;51.502;7.446;2022-08-21T00:30:34;13.77;;;5.70;;
68072;SDS011;54862;51.502;7.446;2022-08-21T00:33:00;12.25;;;5.53;;
68072;SDS011;54862;51.502;7.446;2022-08-21T00:35:28;10.55;;;5.60;;
68072;SDS011;54862;51.502;7.446;2022-08-21T00:37:55;15.55;;;5.97;;
68072;SDS011;54862;51.502;7.446;2022-08-21T00:40:26;11.77;;;6.07;;
68072;SDS011;54862;51.502;7.446;2022-08-21T00:42:52;11.68;;;6.38;;
68072;SDS011;54862;51.502;7.446;2022-08-21T00:45:19;15.68;;;6.25;;
68072;SDS011;54862;51.502;7.446;2022-08-21T00:47:45;12.88;;;6.00;;
68072;SDS011;54862;51.502;7.446;2022-08-21T00:50:11;15.88;;;6.20;;
68072;SDS011;54862;51.502;7.446;2022-08-21T00:52:37;16.05;;;5.88;;
68072;SDS011;54862;51.502;7.446;2022-08-21T00:55:04;11.50;;;5.65;;
68072;SDS011;54862;51.502;7.446;2022-08-21T00:57:33;12.50;;;5.38;;
68072;SDS011;54862;51.502;7.446;2022-08-21T01:00:00;10.73;;;5.28;;
68072;SDS011;54862;51.502;7.446;2022-08-21T01:02:26;14.75;;;6.07;;
68072;SDS011;54862;51.502;7.446;2022-08-21T01:04:53;13.13;;;6.20;;
68072;SDS011;54862;51.502;7.446;2022-08-21T01:07:19;10.90;;;5.85;;
68072;SDS011;54862;51.502;7.446;2022-08-21T01:09:45;13.68;;;5.85;;
68072;SDS011;54862;51.502;7.446;2022-08-21T01:12:12;11.68;;;5.40;;
68072;SDS011;54862;51.502;7.446;2022-08-21T01:14:38;13.27;;;5.97;;
68072;SDS011;54862;51.502;7.446;2022-08-21T01:17:06;10.30;;;5.60;;
68072;SDS011;54862;51.502;7.446;2022-08-21T01:19:33;11.45;;;5.68;;
68072;SDS011;54862;51.502;7.446;2022-08-21T01:21:59;13.55;;;6.78;;
68072;SDS011;54862;51.502;7.446;2022-08-21T01:24:25;14.15;;;5.65;;
68072;SDS011;54862;51.502;7.446;2022-08-21T01:26:52;11.45;;;5.38;;
68072;SDS011;54862;51.502;7.446;2022-08-21T01:29:32;13.73;;;5.40;;
68072;SDS011;54862;51.502;7.446;2022-08-21T01:32:03;14.55;;;5.15;;
68072;SDS011;54862;51.502;7.446;2022-08-21T01:34:30;15.32;;;5.82;;
68072;SDS011;54862;51.502;7.446;2022-08-21T01:36:57;13.02;;;5.32;;
68072;SDS011;54862;51.502;7.446;2022-08-21T01:39:23;10.73;;;5.30;;
68072;SDS011;54862;51.502;7.446;2022-08-21T01:41:49;11.05;;;5.32;;
68072;SDS011;54862;51.502;7.446;2022-08-21T01:44:15;10.77;;;4.85;;
68072;SDS011;54862;51.502;7.446;2022-08-21T01:46:41;10.68;;;5.28;;
68072;SDS011;54862;51.502;7.446;2022-08-21T01:49:07;10.75;;;5.05;;
68072;SDS011;54862;51.502;7.446;2022-08-21T01:51:33;10.48;;;4.30;;
68072;SDS011;54862;51.502;7.446;2022-08-21T01:53:59;12.55;;;4.70;;
68072;SDS011;54862;51.502;7.446;2022-08-21T01:56:25;12.30;;;5.07;;
68072;SDS011;54862;51.502;7.446;2022-08-21T01:58:52;11.55;;;5.07;;
68072;SDS011;54862;51.502;7.446;2022-08-21T02:01:18;9.98;;;4.68;;
68072;SDS011;54862;51.502;7.446;2022-08-21T02:03:44;12.13;;;5.15;;
68072;SDS011;54862;51.502;7.446;2022-08-21T02:06:15;11.40;;;4.90;;
68072;SDS011;54862;51.502;7.446;2022-08-21T02:08:42;8.98;;;5.13;;
68072;SDS011;54862;51.502;7.446;2022-08-21T02:11:08;13.27;;;4.97;;
68072;SDS011;54862;51.502;7.446;2022-08-21T02:13:34;10.38;;;5.20;;
68072;SDS011;54862;51.502;7.446;2022-08-21T02:16:00;13.45;;;5.43;;
68072;SDS011;54862;51.502;7.446;2022-08-21T02:18:26;13.02;;;5.10;;
68072;SDS011;54862;51.502;7.446;2022-08-21T02:20:52;10.13;;;5.20;;
68072;SDS011;54862;51.502;7.446;2022-08-21T02:23:18;12.45;;;5.80;;
68072;SDS011;54862;51.502;7.446;2022-08-21T02:25:44;11.38;;;5.63;;
68072;SDS011;54862;51.502;7.446;2022-08-21T02:28:11;11.57;;;5.22;;
68072;SDS011;54862;51.502;7.446;2022-08-21T02:30:42;12.57;;;5.88;;
68072;SDS011;54862;51.502;7.446;2022-08-21T02:33:09;11.32;;;5.45;;
68072;SDS011;54862;51.502;7.446;2022-08-21T02:35:36;17.00;;;6.07;;
68072;SDS011;54862;51.502;7.446;2022-08-21T02:38:04;14.02;;;6.28;;
68072;SDS011;54862;51.502;7.446;2022-08-21T02:40:31;10.85;;;5.38;;
68072;SDS011;54862;51.502;7.446;2022-08-21T02:42:58;11.80;;;5.38;;
68072;SDS011;54862;51.502;7.446;2022-08-21T02:45:24;10.35;;;5.50;;
68072;SDS011;54862;51.502;7.446;2022-08-21T02:47:51;10.50;;;5.45;;
68072;SDS011;54862;51.502;7.446;2022-08-21T02:50:22;12.52;;;5.97;;
68072;SDS011;54862;51.502;7.446;2022-08-21T02:52:48;13.55;;;6.03;;
68072;SDS011;54862;51.502;7.446;2022-08-21T02:55:17;9.80;;;5.57;;
68072;SDS011;54862;51.502;7.446;2022-08-21T02:57:43;12.75;;;5.90;;
68072;SDS011;54862;51.502;7.446;2022-08-21T03:00:09;13.93;;;6.72;;
68072;SDS011;54862;51.502;7.446;2022-08-21T03:02:37;14.25;;;6.25;;
68072;SDS011;54862;51.502;7.446;2022-08-21T03:05:03;12.93;;;6.32;;
68072;SDS011;54862;51.502;7.446;2022-08-21T03:07:30;13.88;;;6.45;;
68072;SDS011;54862;51.502;7.446;2022-08-21T03:09:56;12.23;;;6.35;;
68072;SDS011;54862;51.502;7.446;2022-08-21T03:12:22;12.93;;;6.15;;
68072;SDS011;54862;51.502;7.446;2022-08-21T03:14:48;11.23;;;6.38;;
68072;SDS011;54862;51.502;7.446;2022-08-21T03:17:14;12.73;;;6.28;;
68072;SDS011;54862;51.502;7.446;2022-08-21T03:19:40;16.30;;;6.93;;
68072;SDS011;54862;51.502;7.446;2022-08-21T03:22:06;12.52;;;6.50;;
68072;SDS011;54862;51.502;7.446;2022-08-21T03:24:32;11.80;;;6.45;;
68072;SDS011;54862;51.502;7.446;2022-08-21T03:26:58;13.45;;;6.15;;
68072;SDS011;54862;51.502;7.446;2022-08-21T03:29:25;14.95;;;6.15;;
68072;SDS011;54862;51.502;7.446;2022-08-21T03:31:51;10.80;;;5.78;;
68072;SDS011;54862;51.502;7.446;2022-08-21T03:34:19;12.07;;;6.40;;
68072;SDS011;54862;51.502;7.446;2022-08-21T03:36:45;14.73;;;6.88;;
68072;SDS011;54862;51.502;7.446;2022-08-21T03:39:11;13.90;;;6.38;;
68072;SDS011;54862;51.502;7.446;2022-08-21T03:41:37;12.88;;;6.28;;
68072;SDS011;54862;51.502;7.446;2022-08-21T03:44:03;12.32;;;5.95;;
68072;SDS011;54862;51.502;7.446;2022-08-21T03:46:29;14.68;;;6.95;;
68072;SDS011;54862;51.502;7.446;2022-08-21T03:48:55;13.27;;;6.68;;
68072;SDS011;54862;51.502;7.446;2022-08-21T03:51:21;16.27;;;6.93;;
68072;SDS011;54862;51.502;7.446;2022-08-21T03:53:47;15.77;;;6.97;;
68072;SDS011;54862;51.502;7.446;2022-08-21T03:56:13;11.43;;;6.70;;
68072;SDS011;54862;51.502;7.446;2022-08-21T03:58:41;14.23;;;6.95;;
68072;SDS011;54862;51.502;7.446;2022-08-21T04:01:07;13.85;;;6.88;;
68072;SDS011;54862;51.502;7.446;2022-08-21T04:03:34;12.35;;;6.28;;
68072;SDS011;54862;51.502;7.446;2022-08-21T04:06:00;10.95;;;6.07;;
68072;SDS011;54862;51.502;7.446;2022-08-21T04:08:26;12.63;;;6.57;;
68072;SDS011;54862;51.502;7.446;2022-08-21T04:10:52;14.52;;;6.90;;
68072;SDS011;54862;51.502;7.446;2022-08-21T04:13:19;13.02;;;6.72;;
68072;SDS011;54862;51.502;7.446;2022-08-21T04:15:45;12.23;;;6.47;;
68072;SDS011;54862;51.502;7.446;2022-08-21T04:18:11;13.52;;;6.65;;
68072;SDS011;54862;51.502;7.446;2022-08-21T04:20:38;13.32;;;6.45;;
68072;SDS011;54862;51.502;7.446;2022-08-21T04:23:04;13.90;;;6.80;;
68072;SDS011;54862;51.502;7.446;2022-08-21T04:25:30;13.27;;;7.10;;
68072;SDS011;54862;51.502;7.446;2022-08-21T04:27:56;10.88;;;6.35;;
68072;SDS011;54862;51.502;7.446;2022-08-21T04:30:23;12.25;;;6.25;;
68072;SDS011;54862;51.502;7.446;2022-08-21T04:32:50;15.10;;;6.50;;
68072;SDS011;54862;51.502;7.446;2022-08-21T04:35:17;11.85;;;6.20;;
68072;SDS011;54862;51.502;7.446;2022-08-21T04:37:44;15.30;;;6.60;;
68072;SDS011;54862;51.502;7.446;2022-08-21T04:40:10;13.23;;;6.75;;
68072;SDS011;54862;51.502;7.446;2022-08-21T04:42:41;11.05;;;6.40;;
68072;SDS011;54862;51.502;7.446;2022-08-21T04:45:08;10.82;;;6.25;;
68072;SDS011;54862;51.502;7.446;2022-08-21T04:47:34;16.25;;;6.45;;
68072;SDS011;54862;51.502;7.446;2022-08-21T04:50:00;13.68;;;6.70;;
68072;SDS011;54862;51.502;7.446;2022-08-21T04:52:26;10.32;;;6.10;;
68072;SDS011;54862;51.502;7.446;2022-08-21T04:54:52;13.57;;;6.03;;
68072;SDS011;54862;51.502;7.446;2022-08-21T04:57:18;10.27;;;5.85;;
68072;SDS011;54862;51.502;7.446;2022-08-21T04:59:45;15.95;;;6.35;;
68072;SDS011;54862;51.502;7.446;2022-08-21T05:02:13;12.30;;;6.28;;
68072;SDS011;54862;51.502;7.446;2022-08-21T05:04:47;11.57;;;5.28;;
68072;SDS011;54862;51.502;7.446;2022-08-21T05:07:15;11.43;;;6.25;;
68072;SDS011;54862;51.502;7.446;2022-08-21T05:09:42;12.32;;;6.00;;
68072;SDS011;54862;51.502;7.446;2022-08-21T05:12:08;13.25;;;6.35;;
68072;SDS011;54862;51.502;7.446;2022-08-21T05:14:35;12.57;;;5.88;;
68072;SDS011;54862;51.502;7.446;2022-08-21T05:17:01;13.20;;;6.28;;
68072;SDS011;54862;51.502;7.446;2022-08-21T05:19:27;12.48;;;5.90;;
68072;SDS011;54862;51.502;7.446;2022-08-21T05:21:54;12.40;;;6.43;;
68072;SDS011;54862;51.502;7.446;2022-08-21T05:24:20;13.40;;;6.03;;
68072;SDS011;54862;51.502;7.446;2022-08-21T05:26:46;12.35;;;6.05;;
68072;SDS011;54862;51.502;7.446;2022-08-21T05:29:13;11.43;;;6.07;;
68072;SDS011;54862;51.502;7.446;2022-08-21T05:31:39;13.98;;;6.10;;
68072;SDS011;54862;51.502;7.446;2022-08-21T05:34:05;12.38;;;6.13;;
68072;SDS011;54862;51.502;7.446;2022-08-21T05:36:31;14.10;;;6.40;;
68072;SDS011;54862;51.502;7.446;2022-08-21T05:38:57;10.38;;;5.25;;
68072;SDS011;54862;51.502;7.446;2022-08-21T05:41:23;11.95;;;5.70;;
68072;SDS011;54862;51.502;7.446;2022-08-21T05:43:49;11.00;;;6.13;;
68072;SDS011;54862;51.502;7.446;2022-08-21T05:46:15;14.82;;;6.35;;
68072;SDS011;54862;51.502;7.446;2022-08-21T05:48:41;10.60;;;5.80;;
68072;SDS011;54862;51.502;7.446;2022-08-21T05:51:09;11.57;;;5.97;;
68072;SDS011;54862;51.502;7.446;2022-08-21T05:53:36;13.00;;;6.22;;
68072;SDS011;54862;51.502;7.446;2022-08-21T05:56:03;12.73;;;6.20;;
68072;SDS011;54862;51.502;7.446;2022-08-21T05:58:30;18.73;;;7.03;;
68072;SDS011;54862;51.502;7.446;2022-08-21T06:00:56;11.02;;;5.72;;
68072;SDS011;54862;51.502;7.446;2022-08-21T06:03:25;11.18;;;5.55;;
68072;SDS011;54862;51.502;7.446;2022-08-21T06:05:52;10.73;;;5.80;;
68072;SDS011;54862;51.502;7.446;2022-08-21T06:08:18;10.15;;;5.63;;
68072;SDS011;54862;51.502;7.446;2022-08-21T06:10:45;10.35;;;6.22;;
68072;SDS011;54862;51.502;7.446;2022-08-21T06:13:13;11.43;;;5.60;;
68072;SDS011;54862;51.502;7.446;2022-08-21T06:15:40;12.23;;;5.65;;
68072;SDS011;54862;51.502;7.446;2022-08-21T06:18:06;12.35;;;6.28;;
68072;SDS011;54862;51.502;7.446;2022-08-21T06:20:32;12.52;;;5.88;;
68072;SDS011;54862;51.502;7.446;2022-08-21T06:22:58;11.38;;;5.47;;
68072;SDS011;54862;51.502;7.446;2022-08-21T06:25:24;13.18;;;5.88;;
68072;SDS011;54862;51.502;7.446;2022-08-21T06:27:50;12.95;;;5.72;;
68072;SDS011;54862;51.502;7.446;2022-08-21T06:30:16;12.40;;;5.53;;
68072;SDS011;54862;51.502;7.446;2022-08-21T06:32:42;14.60;;;7.03;;
68072;SDS011;54862;51.502;7.446;2022-08-21T06:35:09;23.75;;;11.70;;
68072;SDS011;54862;51.502;7.446;2022-08-21T06:37:36;23.83;;;13.10;;
68072;SDS011;54862;51.502;7.446;2022-08-21T06:40:05;25.55;;;15.82;;
68072;SDS011;54862;51.502;7.446;2022-08-21T06:42:31;23.13;;;14.13;;
68072;SDS011;54862;51.502;7.446;2022-08-21T06:44:57;25.05;;;16.63;;
68072;SDS011;54862;51.502;7.446;2022-08-21T06:47:24;24.75;;;14.07;;
68072;SDS011;54862;51.502;7.446;2022-08-21T06:49:50;22.67;;;14.07;;
68072;SDS011;54862;51.502;7.446;2022-08-21T06:52:16;21.27;;;12.43;;
68072;SDS011;54862;51.502;7.446;2022-08-21T06:54:42;17.55;;;8.75;;
68072;SDS011;54862;51.502;7.446;2022-08-21T06:57:08;15.23;;;7.35;;
68072;SDS011;54862;51.502;7.446;2022-08-21T06:59:34;16.25;;;6.45;;
68072;SDS011;54862;51.502;7.446;2022-08-21T07:02:00;15.43;;;6.53;;
68072;SDS011;54862;51.502;7.446;2022-08-21T07:04:26;13.20;;;6.05;;
68072;SDS011;54862;51.502;7.446;2022-08-21T07:06:52;15.10;;;5.38;;
68072;SDS011;54862;51.502;7.446;2022-08-21T07:09:18;12.80;;;5.60;;
68072;SDS011;54862;51.502;7.446;2022-08-21T07:11:45;11.98;;;5.68;;
68072;SDS011;54862;51.502;7.446;2022-08-21T07:14:13;16.05;;;5.70;;
68072;SDS011;54862;51.502;7.446;2022-08-21T07:16:39;12.45;;;5.40;;
68072;SDS011;54862;51.502;7.446;2022-08-21T07:19:05;10.55;;;5.70;;
68072;SDS011;54862;51.502;7.446;2022-08-21T07:21:31;14.20;;;5.20;;
68072;SDS011;54862;51.502;7.446;2022-08-21T07:23:57;13.95;;;5.22;;
68072;SDS011;54862;51.502;7.446;2022-08-21T07:26:23;11.98;;;6.00;;
68072;SDS011;54862;51.502;7.446;2022-08-21T07:28:49;13.65;;;6.10;;
68072;SDS011;54862;51.502;7.446;2022-08-21T07:31:17;14.85;;;6.45;;
68072;SDS011;54862;51.502;7.446;2022-08-21T07:33:44;13.55;;;6.72;;
68072;SDS011;54862;51.502;7.446;2022-08-21T07:36:10;13.05;;;6.80;;
68072;SDS011;54862;51.502;7.446;2022-08-21T07:38:36;16.60;;;7.20;;
68072;SDS011;54862;51.502;7.446;2022-08-21T07:41:04;13.48;;;6.88;;
68072;SDS011;54862;51.502;7.446;2022-08-21T07:43:31;16.45;;;7.57;;
68072;SDS011;54862;51.502;7.446;2022-08-21T07:45:57;16.75;;;7.20;;
68072;SDS011;54862;51.502;7.446;2022-08-21T07:48:23;16.40;;;7.28;;
68072;SDS011;54862;51.502;7.446;2022-08-21T07:50:50;13.98;;;7.40;;
68072;SDS011;54862;51.502;7.446;2022-08-21T07:53:16;14.52;;;7.43;;
68072;SDS011;54862;51.502;7.446;2022-08-21T07:55:42;15.32;;;7.70;;
68072;SDS011;54862;51.502;7.446;2022-08-21T07:58:08;18.48;;;7.85;;
68072;SDS011;54862;51.502;7.446;2022-08-21T08:00:34;16.35;;;7.72;;
68072;SDS011;54862;51.502;7.446;2022-08-21T08:03:00;14.18;;;7.82;;
68072;SDS011;54862;51.502;7.446;2022-08-21T08:05:29;12.75;;;7.63;;
68072;SDS011;54862;51.502;7.446;2022-08-21T08:07:55;14.85;;;7.30;;
68072;SDS011;54862;51.502;7.446;2022-08-21T08:10:22;16.67;;;7.72;;
68072;SDS011;54862;51.502;7.446;2022-08-21T08:12:48;13.50;;;6.93;;
68072;SDS011;54862;51.502;7.446;2022-08-21T08:15:17;14.27;;;6.93;;
68072;SDS011;54862;51.502;7.446;2022-08-21T08:17:44;14.93;;;7.38;;
68072;SDS011;54862;51.502;7.446;2022-08-21T08:20:10;13.88;;;6.70;;
68072;SDS011;54862;51.502;7.446;2022-08-21T08:22:37;12.77;;;6.47;;
68072;SDS011;54862;51.502;7.446;2022-08-21T08:25:04;19.08;;;6.57;;
68072;SDS011;54862;51.502;7.446;2022-08-21T08:27:30;15.90;;;7.00;;
68072;SDS011;54862;51.502;7.446;2022-08-21T08:29:56;12.95;;;6.65;;
68072;SDS011;54862;51.502;7.446;2022-08-21T08:32:22;19.83;;;7.53;;
68072;SDS011;54862;51.502;7.446;2022-08-21T08:34:48;13.15;;;5.68;;
68072;SDS011;54862;51.502;7.446;2022-08-21T08:37:16;11.77;;;5.40;;
68072;SDS011;54862;51.502;7.446;2022-08-21T08:39:43;10.27;;;4.80;;
68072;SDS011;54862;51.502;7.446;2022-08-21T08:42:12;13.82;;;4.85;;
68072;SDS011;54862;51.502;7.446;2022-08-21T08:44:42;11.07;;;5.45;;
68072;SDS011;54862;51.502;7.446;2022-08-21T08:47:09;12.27;;;4.47;;
68072;SDS011;54862;51.502;7.446;2022-08-21T08:49:37;8.52;;;3.90;;
68072;SDS011;54862;51.502;7.446;2022-08-21T08:52:27;10.52;;;3.70;;
68072;SDS011;54862;51.502;7.446;2022-08-21T08:55:13;9.10;;;3.50;;
68072;SDS011;54862;51.502;7.446;2022-08-21T08:57:42;13.32;;;3.78;;
68072;SDS011;54862;51.502;7.446;2022-08-21T09:00:10;11.35;;;3.33;;
68072;SDS011;54862;51.502;7.446;2022-08-21T09:02:39;10.65;;;3.10;;
68072;SDS011;54862;51.502;7.446;2022-08-21T09:05:06;9.27;;;3.22;;
68072;SDS011;54862;51.502;7.446;2022-08-21T09:10:03;7.45;;;2.88;;
68072;SDS011;54862;51.502;7.446;2022-08-21T09:15:05;7.78;;;2.92;;
68072;SDS011;54862;51.502;7.446;2022-08-21T09:17:38;10.35;;;2.75;;
68072;SDS011;54862;51.502;7.446;2022-08-21T09:22:43;9.07;;;3.33;;
68072;SDS011;54862;51.502;7.446;2022-08-21T09:27:56;7.20;;;2.70;;
68072;SDS011;54862;51.502;7.446;2022-08-21T09:30:26;9.10;;;2.75;;
68072;SDS011;54862;51.502;7.446;2022-08-21T09:32:52;8.98;;;2.70;;
68072;SDS011;54862;51.502;7.446;2022-08-21T09:35:19;9.77;;;2.55;;
68072;SDS011;54862;51.502;7.446;2022-08-21T09:40:26;10.20;;;2.70;;
68072;SDS011;54862;51.502;7.446;2022-08-21T09:42:59;9.05;;;2.45;;
68072;SDS011;54862;51.502;7.446;2022-08-21T09:45:25;8.32;;;3.10;;
68072;SDS011;54862;51.502;7.446;2022-08-21T09:47:52;9.95;;;3.40;;
68072;SDS011;54862;51.502;7.446;2022-08-21T09:50:20;11.07;;;3.08;;
68072;SDS011;54862;51.502;7.446;2022-08-21T09:53:14;9.63;;;2.47;;
68072;SDS011;54862;51.502;7.446;2022-08-21T09:55:34;7.47;;;2.90;;
68072;SDS011;54862;51.502;7.446;2022-08-21T09:58:29;7.10;;;2.35;;
68072;SDS011;54862;51.502;7.446;2022-08-21T10:00:59;11.07;;;2.60;;
68072;SDS011;54862;51.502;7.446;2022-08-21T10:03:26;10.10;;;3.10;;
68072;SDS011;54862;51.502;7.446;2022-08-21T10:05:59;10.15;;;2.90;;
68072;SDS011;54862;51.502;7.446;2022-08-21T10:08:27;5.85;;;2.47;;
68072;SDS011;54862;51.502;7.446;2022-08-21T10:10:56;9.95;;;2.65;;
68072;SDS011;54862;51.502;7.446;2022-08-21T10:16:08;10.02;;;2.78;;
68072;SDS011;54862;51.502;7.446;2022-08-21T10:31:22;10.45;;;2.60;;
68072;SDS011;54862;51.502;7.446;2022-08-21T10:33:53;9.82;;;2.47;;
68072;SDS011;54862;51.502;7.446;2022-08-21T10:42:16;8.07;;;2.63;;
68072;SDS011;54862;51.502;7.446;2022-08-21T10:44:42;8.98;;;3.10;;
68072;SDS011;54862;51.502;7.446;2022-08-21T10:49:39;8.10;;;2.67;;
68072;SDS011;54862;51.502;7.446;2022-08-21T10:54:57;8.70;;;2.47;;
68072;SDS011;54862;51.502;7.446;2022-08-21T11:00:15;4.93;;;2.65;;
68072;SDS011;54862;51.502;7.446;2022-08-21T11:02:42;7.85;;;2.47;;
68072;SDS011;54862;51.502;7.446;2022-08-21T11:05:16;6.85;;;2.42;;
68072;SDS011;54862;51.502;7.446;2022-08-21T11:08:29;7.88;;;2.45;;
68072;SDS011;54862;51.502;7.446;2022-08-21T11:10:46;5.90;;;2.03;;
68072;SDS011;54862;51.502;7.446;2022-08-21T11:15:48;9.45;;;2.55;;
68072;SDS011;54862;51.502;7.446;2022-08-21T11:21:02;8.95;;;2.33;;
68072;SDS011;54862;51.502;7.446;2022-08-21T11:23:33;7.20;;;2.25;;
68072;SDS011;54862;51.502;7.446;2022-08-21T11:26:04;7.68;;;2.15;;
68072;SDS011;54862;51.502;7.446;2022-08-21T11:28:37;6.35;;;2.00;;
68072;SDS011;54862;51.502;7.446;2022-08-21T11:38:48;7.60;;;1.98;;
68072;SDS011;54862;51.502;7.446;2022-08-21T11:44:10;8.43;;;1.90;;
68072;SDS011;54862;51.502;7.446;2022-08-21T11:52:02;6.88;;;2.03;;
68072;SDS011;54862;51.502;7.446;2022-08-21T11:54:42;3.20;;;1.70;;
68072;SDS011;54862;51.502;7.446;2022-08-21T11:57:14;3.45;;;1.80;;
68072;SDS011;54862;51.502;7.446;2022-08-21T12:02:29;4.47;;;1.77;;
68072;SDS011;54862;51.502;7.446;2022-08-21T12:05:02;6.22;;;1.90;;
68072;SDS011;54862;51.502;7.446;2022-08-21T12:09:56;3.95;;;2.00;;
68072;SDS011;54862;51.502;7.446;2022-08-21T12:12:26;8.98;;;2.05;;
68072;SDS011;54862;51.502;7.446;2022-08-21T12:15:04;6.63;;;1.90;;
68072;SDS011;54862;51.502;7.446;2022-08-21T12:17:38;4.35;;;2.40;;
68072;SDS011;54862;51.502;7.446;2022-08-21T12:23:05;5.25;;;2.00;;
68072;SDS011;54862;51.502;7.446;2022-08-21T12:25:44;7.80;;;2.00;;
68072;SDS011;54862;51.502;7.446;2022-08-21T12:28:21;4.07;;;1.80;;
68072;SDS011;54862;51.502;7.446;2022-08-21T12:30:48;3.10;;;1.60;;
68072;SDS011;54862;51.502;7.446;2022-08-21T12:35:47;4.13;;;1.85;;
68072;SDS011;54862;51.502;7.446;2022-08-21T12:38:29;4.50;;;2.00;;
68072;SDS011;54862;51.502;7.446;2022-08-21T12:41:01;4.57;;;1.75;;
68072;SDS011;54862;51.502;7.446;2022-08-21T12:43:40;4.83;;;2.10;;
68072;SDS011;54862;51.502;7.446;2022-08-21T12:46:13;3.03;;;1.67;;
68072;SDS011;54862;51.502;7.446;2022-08-21T12:54:07;7.30;;;2.00;;
68072;SDS011;54862;51.502;7.446;2022-08-21T12:56:33;3.90;;;1.73;;
68072;SDS011;54862;51.502;7.446;2022-08-21T12:59:03;3.85;;;1.73;;
68072;SDS011;54862;51.502;7.446;2022-08-21T13:01:44;6.55;;;1.90;;
68072;SDS011;54862;51.502;7.446;2022-08-21T13:04:12;4.90;;;1.80;;
68072;SDS011;54862;51.502;7.446;2022-08-21T13:06:49;5.20;;;1.73;;
68072;SDS011;54862;51.502;7.446;2022-08-21T13:09:17;5.50;;;1.70;;
68072;SDS011;54862;51.502;7.446;2022-08-21T13:11:45;3.63;;;1.70;;
68072;SDS011;54862;51.502;7.446;2022-08-21T13:14:17;4.05;;;1.70;;
68072;SDS011;54862;51.502;7.446;2022-08-21T13:16:46;3.80;;;1.80;;
68072;SDS011;54862;51.502;7.446;2022-08-21T13:19:16;4.20;;;1.55;;
68072;SDS011;54862;51.502;7.446;2022-08-21T13:21:43;3.10;;;1.60;;
68072;SDS011;54862;51.502;7.446;2022-08-21T13:24:23;5.80;;;1.73;;
68072;SDS011;54862;51.502;7.446;2022-08-21T13:26:49;2.58;;;1.50;;
68072;SDS011;54862;51.502;7.446;2022-08-21T13:29:17;3.78;;;1.70;;
68072;SDS011;54862;51.502;7.446;2022-08-21T13:32:03;4.10;;;1.50;;
68072;SDS011;54862;51.502;7.446;2022-08-21T13:34:33;4.28;;;1.60;;
68072;SDS011;54862;51.502;7.446;2022-08-21T13:37:02;5.65;;;1.90;;
68072;SDS011;54862;51.502;7.446;2022-08-21T13:39:29;3.55;;;1.70;;
68072;SDS011;54862;51.502;7.446;2022-08-21T13:41:57;3.78;;;1.60;;
68072;SDS011;54862;51.502;7.446;2022-08-21T13:44:24;4.55;;;1.60;;
68072;SDS011;54862;51.502;7.446;2022-08-21T13:46:57;4.72;;;1.60;;
68072;SDS011;54862;51.502;7.446;2022-08-21T13:49:26;5.53;;;1.73;;
68072;SDS011;54862;51.502;7.446;2022-08-21T13:51:54;2.55;;;1.52;;
68072;SDS011;54862;51.502;7.446;2022-08-21T13:56:47;4.78;;;1.60;;
68072;SDS011;54862;51.502;7.446;2022-08-21T13:59:23;3.33;;;1.63;;
68072;SDS011;54862;51.502;7.446;2022-08-21T14:01:51;3.75;;;1.70;;
68072;SDS011;54862;51.502;7.446;2022-08-21T14:04:23;2.08;;;1.40;;
68072;SDS011;54862;51.502;7.446;2022-08-21T14:06:50;4.13;;;1.50;;
68072;SDS011;54862;51.502;7.446;2022-08-21T14:11:45;2.95;;;1.60;;
68072;SDS011;54862;51.502;7.446;2022-08-21T14:14:16;4.15;;;1.52;;
68072;SDS011;54862;51.502;7.446;2022-08-21T14:16:47;4.28;;;1.80;;
68072;SDS011;54862;51.502;7.446;2022-08-21T14:21:44;2.03;;;1.50;;
68072;SDS011;54862;51.502;7.446;2022-08-21T14:24:32;3.60;;;1.50;;
68072;SDS011;54862;51.502;7.446;2022-08-21T14:29:26;5.05;;;1.65;;
68072;SDS011;54862;51.502;7.446;2022-08-21T14:31:55;2.80;;;1.45;;
68072;SDS011;54862;51.502;7.446;2022-08-21T14:34:22;3.47;;;1.60;;
68072;SDS011;54862;51.502;7.446;2022-08-21T14:36:48;5.20;;;1.60;;
68072;SDS011;54862;51.502;7.446;2022-08-21T14:39:14;6.00;;;1.50;;
68072;SDS011;54862;51.502;7.446;2022-08-21T14:41:41;4.15;;;1.77;;
68072;SDS011;54862;51.502;7.446;2022-08-21T14:44:07;2.70;;;1.55;;
68072;SDS011;54862;51.502;7.446;2022-08-21T14:46:34;3.80;;;1.70;;
68072;SDS011;54862;51.502;7.446;2022-08-21T14:49:01;4.30;;;1.67;;
68072;SDS011;54862;51.502;7.446;2022-08-21T14:51:27;4.32;;;1.70;;
68072;SDS011;54862;51.502;7.446;2022-08-21T14:53:53;4.57;;;1.80;;
68072;SDS011;54862;51.502;7.446;2022-08-21T14:56:19;2.88;;;1.50;;
68072;SDS011;54862;51.502;7.446;2022-08-21T14:58:46;2.60;;;1.63;;
68072;SDS011;54862;51.502;7.446;2022-08-21T15:01:14;2.80;;;1.65;;
68072;SDS011;54862;51.502;7.446;2022-08-21T15:03:42;4.32;;;1.55;;
68072;SDS011;54862;51.502;7.446;2022-08-21T15:06:08;2.08;;;1.40;;
68072;SDS011;54862;51.502;7.446;2022-08-21T15:08:34;2.10;;;1.42;;
68072;SDS011;54862;51.502;7.446;2022-08-21T15:11:01;3.65;;;1.52;;
68072;SDS011;54862;51.502;7.446;2022-08-21T15:13:27;3.97;;;1.60;;
68072;SDS011;54862;51.502;7.446;2022-08-21T15:15:53;2.33;;;1.65;;
68072;SDS011;54862;51.502;7.446;2022-08-21T15:18:21;7.40;;;1.70;;
68072;SDS011;54862;51.502;7.446;2022-08-21T15:20:47;3.55;;;1.70;;
68072;SDS011;54862;51.502;7.446;2022-08-21T15:23:13;5.93;;;1.73;;
68072;SDS011;54862;51.502;7.446;2022-08-21T15:25:41;6.60;;;1.80;;
68072;SDS011;54862;51.502;7.446;2022-08-21T15:28:07;4.50;;;1.80;;
68072;SDS011;54862;51.502;7.446;2022-08-21T15:30:36;4.75;;;1.70;;
68072;SDS011;54862;51.502;7.446;2022-08-21T15:33:02;4.18;;;1.90;;
68072;SDS011;54862;51.502;7.446;2022-08-21T15:35:28;4.30;;;1.85;;
68072;SDS011;54862;51.502;7.446;2022-08-21T15:37:54;3.42;;;1.60;;
68072;SDS011;54862;51.502;7.446;2022-08-21T15:40:21;5.93;;;1.85;;
68072;SDS011;54862;51.502;7.446;2022-08-21T15:42:48;2.88;;;1.67;;
68072;SDS011;54862;51.502;7.446;2022-08-21T15:45:17;3.47;;;1.70;;
68072;SDS011;54862;51.502;7.446;2022-08-21T15:47:44;2.47;;;1.63;;
68072;SDS011;54862;51.502;7.446;2022-08-21T15:50:11;3.55;;;1.60;;
68072;SDS011;54862;51.502;7.446;2022-08-21T15:52:37;3.10;;;1.70;;
68072;SDS011;54862;51.502;7.446;2022-08-21T15:55:04;3.83;;;1.75;;
68072;SDS011;54862;51.502;7.446;2022-08-21T15:57:31;4.90;;;1.80;;
68072;SDS011;54862;51.502;7.446;2022-08-21T15:59:58;5.28;;;1.92;;
68072;SDS011;54862;51.502;7.446;2022-08-21T16:04:56;3.92;;;1.80;;
68072;SDS011;54862;51.502;7.446;2022-08-21T16:07:22;5.97;;;2.10;;
68072;SDS011;54862;51.502;7.446;2022-08-21T16:09:48;5.45;;;1.70;;
68072;SDS011;54862;51.502;7.446;2022-08-21T16:12:21;4.75;;;1.70;;
68072;SDS011;54862;51.502;7.446;2022-08-21T16:14:48;4.10;;;1.52;;